createdAt,value
2023-05-03T00:00:27.387Z,15.37
2023-05-03T00:02:57.590Z,15.29
2023-05-03T00:05:28.226Z,15.18
2023-05-03T00:07:57.207Z,15.03
2023-05-03T00:10:27.235Z,14.93
2023-05-03T00:12:56.881Z,14.86
2023-05-03T00:15:25.637Z,14.82
2023-05-03T00:17:54.176Z,14.69
2023-05-03T00:20:22.729Z,14.61
2023-05-03T00:22:51.093Z,14.51
2023-05-03T00:25:19.709Z,14.47
2023-05-03T00:27:49.495Z,14.39
2023-05-03T00:30:19.167Z,14.39
2023-05-03T00:32:47.725Z,14.43
2023-05-03T00:35:16.136Z,14.49
2023-05-03T00:37:44.536Z,14.53
2023-05-03T00:40:16.557Z,14.47
2023-05-03T00:42:44.883Z,14.49
2023-05-03T00:45:14.751Z,14.45
2023-05-03T00:47:43.638Z,14.50
2023-05-03T00:50:12.743Z,14.55
2023-05-03T00:52:41.953Z,14.58
2023-05-03T00:55:11.667Z,14.61
2023-05-03T00:57:40.122Z,14.54
2023-05-03T01:00:10.944Z,14.57
2023-05-03T01:02:41.966Z,14.56
2023-05-03T01:05:11.253Z,14.53
2023-05-03T01:07:48.920Z,14.50
2023-05-03T01:10:24.463Z,14.48
2023-05-03T01:13:00.905Z,14.48
2023-05-03T01:15:45.637Z,14.49
2023-05-03T01:18:20.122Z,14.54
2023-05-03T01:20:50.359Z,14.51
2023-05-03T01:23:34.255Z,14.45
2023-05-03T01:26:16.618Z,14.10
2023-05-03T01:28:45.149Z,14.20
2023-05-03T01:31:18.034Z,14.22
2023-05-03T01:33:55.006Z,14.10
2023-05-03T01:36:28.183Z,13.84
2023-05-03T01:38:56.718Z,13.92
2023-05-03T01:41:29.202Z,13.91
2023-05-03T01:43:58.713Z,13.99
2023-05-03T01:46:27.211Z,13.99
2023-05-03T01:48:55.685Z,13.98
2023-05-03T01:51:24.131Z,13.92
2023-05-03T01:53:52.590Z,13.88
2023-05-03T01:56:21.718Z,13.84
2023-05-03T01:58:51.648Z,13.88
2023-05-03T02:01:20.209Z,13.89
2023-05-03T02:03:48.690Z,13.92
2023-05-03T02:06:18.345Z,13.93
2023-05-03T02:08:46.777Z,14.02
2023-05-03T02:11:15.209Z,14.11
2023-05-03T02:13:43.607Z,14.14
2023-05-03T02:16:13.559Z,14.16
2023-05-03T02:18:41.965Z,14.16
2023-05-03T02:21:10.750Z,14.15
2023-05-03T02:23:39.207Z,14.12
2023-05-03T02:26:08.940Z,14.07
2023-05-03T02:28:37.319Z,14.09
2023-05-03T02:31:06.772Z,14.13
2023-05-03T02:33:36.768Z,14.13
2023-05-03T02:36:05.707Z,14.10
2023-05-03T02:38:35.190Z,14.07
2023-05-03T02:41:03.730Z,14.09
2023-05-03T02:43:32.514Z,14.11
2023-05-03T02:46:01.978Z,14.12
2023-05-03T02:48:30.617Z,14.08
2023-05-03T02:51:00.524Z,13.98
2023-05-03T02:53:29.005Z,14.00
2023-05-03T02:56:02.054Z,14.00
2023-05-03T02:58:31.158Z,13.98
2023-05-03T03:01:00.978Z,13.90
2023-05-03T03:03:31.748Z,13.75
2023-05-03T03:06:02.106Z,13.69
2023-05-03T03:08:30.831Z,13.54
2023-05-03T03:11:02.825Z,13.41
2023-05-03T03:13:31.485Z,13.30
2023-05-03T03:16:00.660Z,13.11
2023-05-03T03:18:29.074Z,13.12
2023-05-03T03:20:57.426Z,13.14
2023-05-03T03:23:27.329Z,13.14
2023-05-03T03:25:55.800Z,13.12
2023-05-03T03:28:24.252Z,13.05
2023-05-03T03:30:53.270Z,12.94
2023-05-03T03:33:25.955Z,12.86
2023-05-03T03:35:59.295Z,12.83
2023-05-03T03:38:33.755Z,12.85
2023-05-03T03:41:06.126Z,12.94
2023-05-03T03:43:34.781Z,13.06
2023-05-03T03:46:06.595Z,13.12
2023-05-03T03:48:35.554Z,13.17
2023-05-03T03:51:03.952Z,13.22
2023-05-03T03:53:40.282Z,13.18
2023-05-03T03:56:09.660Z,13.15
2023-05-03T03:58:37.980Z,13.16
2023-05-03T04:01:09.439Z,13.18
2023-05-03T04:03:38.290Z,13.27
2023-05-03T04:06:07.342Z,13.35
2023-05-03T04:08:35.901Z,13.42
2023-05-03T04:11:10.826Z,13.49
2023-05-03T04:13:42.433Z,13.54
2023-05-03T04:16:11.555Z,13.61
2023-05-03T04:18:39.965Z,13.65
2023-05-03T04:21:10.127Z,13.65
2023-05-03T04:23:39.596Z,13.68
2023-05-03T04:26:20.313Z,13.69
2023-05-03T04:28:56.853Z,13.66
2023-05-03T04:31:27.141Z,13.66
2023-05-03T04:33:56.835Z,13.64
2023-05-03T04:36:30.068Z,13.67
2023-05-03T04:39:00.360Z,13.65
2023-05-03T04:41:30.698Z,13.68
2023-05-03T04:43:59.364Z,13.63
2023-05-03T04:46:28.079Z,13.61
2023-05-03T04:48:57.718Z,13.60
2023-05-03T04:51:28.424Z,13.61
2023-05-03T04:53:59.837Z,13.60
2023-05-03T04:56:29.703Z,13.63
2023-05-03T04:59:09.479Z,13.65
2023-05-03T05:01:39.962Z,13.69
2023-05-03T05:04:09.743Z,13.75
2023-05-03T05:06:45.869Z,13.77
2023-05-03T05:09:23.669Z,13.79
2023-05-03T05:11:57.085Z,13.82
2023-05-03T05:14:31.918Z,13.90
2023-05-03T05:17:00.580Z,13.97
2023-05-03T05:19:29.037Z,13.83
2023-05-03T05:21:58.357Z,14.05
2023-05-03T05:24:33.322Z,14.08
2023-05-03T05:27:01.943Z,14.14
2023-05-03T05:29:32.719Z,14.19
2023-05-03T05:32:04.441Z,14.24
2023-05-03T05:34:43.704Z,14.33
2023-05-03T05:37:17.358Z,14.46
2023-05-03T05:39:47.245Z,14.68
2023-05-03T05:42:17.398Z,14.53
2023-05-03T05:44:48.085Z,15.02
2023-05-03T05:47:16.745Z,15.17
2023-05-03T05:49:46.692Z,15.31
2023-05-03T05:52:15.797Z,15.37
2023-05-03T05:54:44.393Z,15.44
2023-05-03T05:57:14.128Z,15.47
2023-05-03T05:59:43.199Z,15.49
2023-05-03T06:02:17.028Z,15.55
2023-05-03T06:04:47.656Z,15.57
2023-05-03T06:07:16.268Z,15.67
2023-05-03T06:09:44.723Z,15.77
2023-05-03T06:12:14.186Z,15.97
2023-05-03T06:15:00.936Z,16.39
2023-05-03T06:17:33.423Z,16.97
2023-05-03T06:20:02.179Z,17.64
2023-05-03T06:22:30.788Z,18.23
2023-05-03T06:25:01.284Z,18.86
2023-05-03T06:27:29.710Z,19.35
2023-05-03T06:29:58.781Z,19.94
2023-05-03T06:32:27.585Z,20.28
2023-05-03T06:34:59.585Z,20.73
2023-05-03T06:37:28.146Z,21.08
2023-05-03T06:39:56.531Z,21.46
2023-05-03T06:42:24.966Z,21.86
2023-05-03T06:45:06.207Z,22.21
2023-05-03T06:47:34.698Z,22.48
2023-05-03T06:50:05.040Z,22.80
2023-05-03T06:52:33.747Z,23.08
2023-05-03T06:55:02.151Z,23.21
2023-05-03T06:57:30.484Z,23.42
2023-05-03T06:59:59.009Z,23.61
2023-05-03T07:02:27.876Z,24.05
2023-05-03T07:04:56.326Z,23.96
2023-05-03T07:07:26.162Z,24.12
2023-05-03T07:09:54.507Z,24.38
2023-05-03T07:12:27.725Z,24.37
2023-05-03T07:14:56.764Z,24.33
2023-05-03T07:17:25.648Z,24.63
2023-05-03T07:19:55.684Z,25.00
2023-05-03T07:22:25.987Z,25.09
2023-05-03T07:24:55.106Z,25.20
2023-05-03T07:27:23.584Z,25.45
2023-05-03T07:29:52.341Z,25.39
2023-05-03T07:32:21.942Z,25.43
2023-05-03T07:34:50.637Z,25.61
2023-05-03T07:37:19.027Z,25.50
2023-05-03T07:39:49.326Z,25.75
2023-05-03T07:42:17.780Z,25.78
2023-05-03T07:44:46.210Z,25.71
2023-05-03T07:47:14.865Z,25.50
2023-05-03T07:49:43.334Z,25.40
2023-05-03T07:52:11.755Z,25.11
2023-05-03T07:54:40.480Z,24.63
2023-05-03T07:57:10.238Z,24.43
2023-05-03T07:59:38.869Z,24.39
2023-05-03T08:02:07.698Z,24.16
2023-05-03T08:04:36.473Z,23.91
2023-05-03T08:07:05.317Z,23.77
2023-05-03T08:09:33.692Z,23.73
2023-05-03T08:12:03.301Z,23.55
2023-05-03T08:14:33.900Z,23.40
2023-05-03T08:17:02.292Z,23.43
2023-05-03T08:19:30.719Z,23.53
2023-05-03T08:21:59.182Z,23.62
2023-05-03T08:24:27.963Z,23.61
2023-05-03T08:26:56.819Z,23.67
2023-05-03T08:29:27.034Z,23.68
2023-05-03T08:31:58.648Z,23.67
2023-05-03T08:34:27.348Z,23.71
2023-05-03T08:36:56.125Z,23.70
2023-05-03T08:39:26.946Z,23.76
2023-05-03T08:41:55.539Z,23.72
2023-05-03T08:44:25.967Z,23.72
2023-05-03T08:46:54.913Z,23.69
2023-05-03T08:49:26.333Z,23.49
2023-05-03T08:51:56.936Z,23.64
2023-05-03T08:54:25.601Z,23.69
2023-05-03T08:56:54.101Z,23.79
2023-05-03T08:59:22.610Z,23.88
2023-05-03T09:01:52.347Z,23.98
2023-05-03T09:04:22.229Z,24.09
2023-05-03T09:06:53.608Z,24.18
2023-05-03T09:09:33.095Z,24.29
2023-05-03T09:12:01.780Z,24.38
2023-05-03T09:14:30.135Z,24.50
2023-05-03T09:17:15.952Z,24.66
2023-05-03T09:20:02.460Z,24.77
2023-05-03T09:22:35.131Z,24.84
2023-05-03T09:25:04.234Z,24.94
2023-05-03T09:27:32.706Z,25.07
2023-05-03T09:30:19.384Z,25.16
2023-05-03T09:32:51.215Z,25.30
2023-05-03T09:35:19.724Z,25.43
2023-05-03T09:37:49.439Z,25.54
2023-05-03T09:40:18.971Z,25.64
2023-05-03T09:43:11.575Z,25.69
2023-05-03T09:45:40.647Z,25.64
2023-05-03T09:48:10.137Z,25.72
2023-05-03T09:50:38.971Z,25.68
2023-05-03T09:53:09.088Z,25.77
2023-05-03T09:55:38.730Z,25.80
2023-05-03T09:58:08.320Z,25.85
2023-05-03T10:00:40.632Z,25.91
2023-05-03T10:03:11.576Z,25.92
2023-05-03T10:05:47.466Z,26.04
2023-05-03T10:08:24.443Z,26.20
2023-05-03T10:10:54.586Z,26.19
2023-05-03T10:13:23.933Z,26.33
2023-05-03T10:15:57.671Z,26.44
2023-05-03T10:18:31.142Z,26.21
2023-05-03T10:21:04.868Z,26.53
2023-05-03T10:23:34.659Z,26.58
2023-05-03T10:26:17.873Z,26.67
2023-05-03T10:28:46.967Z,26.60
2023-05-03T10:31:47.032Z,26.91
2023-05-03T10:34:23.223Z,26.98
2023-05-03T10:36:54.266Z,26.99
2023-05-03T10:39:24.509Z,27.00
2023-05-03T10:42:00.515Z,27.09
2023-05-03T10:44:30.725Z,27.16
2023-05-03T10:46:59.116Z,27.11
2023-05-03T10:49:28.509Z,27.09
2023-05-03T10:51:58.691Z,27.05
2023-05-03T10:54:29.706Z,27.02
2023-05-03T10:56:58.549Z,26.98
2023-05-03T10:59:27.265Z,26.97
2023-05-03T11:01:56.158Z,26.98
2023-05-03T11:04:34.075Z,27.01
2023-05-03T11:07:02.881Z,27.02
2023-05-03T11:09:36.031Z,26.80
2023-05-03T11:12:08.830Z,26.86
2023-05-03T11:14:39.798Z,26.97
2023-05-03T11:17:10.636Z,26.95
2023-05-03T11:19:39.915Z,26.85
2023-05-03T11:22:08.325Z,26.95
2023-05-03T11:24:38.395Z,27.00
2023-05-03T11:27:08.331Z,27.06
2023-05-03T11:29:38.114Z,27.20
2023-05-03T11:32:10.835Z,27.32
2023-05-03T11:34:40.871Z,27.31
2023-05-03T11:37:11.085Z,27.29
2023-05-03T11:39:43.233Z,27.26
2023-05-03T11:42:11.772Z,27.29
2023-05-03T11:44:40.352Z,27.28
2023-05-03T11:47:09.346Z,27.25
2023-05-03T11:49:37.938Z,27.24
2023-05-03T11:52:06.519Z,27.22
2023-05-03T11:54:34.951Z,27.15
2023-05-03T11:57:14.476Z,27.08
2023-05-03T11:59:43.640Z,27.21
2023-05-03T12:02:14.615Z,27.04
2023-05-03T12:04:45.457Z,27.07
2023-05-03T12:07:18.784Z,27.21
2023-05-03T12:10:05.744Z,27.03
2023-05-03T12:12:42.573Z,26.71
2023-05-03T12:15:16.239Z,26.67
2023-05-03T12:17:49.410Z,26.73
2023-05-03T12:22:56.617Z,26.40
2023-05-03T12:25:29.002Z,26.60
2023-05-03T12:30:37.970Z,26.63
2023-05-03T12:33:10.166Z,26.66
2023-05-03T12:35:40.855Z,26.62
2023-05-03T12:38:10.385Z,26.68
2023-05-03T12:40:41.057Z,26.71
2023-05-03T12:43:11.018Z,26.51
2023-05-03T12:45:40.781Z,26.49
2023-05-03T12:48:10.096Z,26.53
2023-05-03T12:50:39.670Z,26.63
2023-05-03T12:53:10.349Z,26.65
2023-05-03T12:55:42.682Z,26.64
2023-05-03T12:58:43.181Z,26.59
2023-05-03T13:01:37.865Z,26.46
2023-05-03T13:04:00.697Z,26.48
2023-05-03T13:06:43.113Z,26.53
2023-05-03T13:09:19.216Z,26.54
2023-05-03T13:11:50.453Z,26.54
2023-05-03T13:14:20.480Z,26.57
2023-05-03T13:16:49.850Z,26.60
2023-05-03T13:19:18.826Z,26.47
2023-05-03T13:21:48.966Z,26.42
2023-05-03T13:24:17.626Z,26.34
2023-05-03T13:26:46.597Z,26.25
2023-05-03T13:29:15.120Z,26.19
2023-05-03T13:31:44.920Z,26.16
2023-05-03T13:34:13.482Z,26.22
2023-05-03T13:36:41.918Z,26.32
2023-05-03T13:39:10.614Z,26.37
2023-05-03T13:41:41.036Z,26.34
2023-05-03T13:44:09.971Z,26.33
2023-05-03T13:46:39.328Z,26.29
2023-05-03T13:49:09.729Z,26.25
2023-05-03T13:51:38.674Z,26.15
2023-05-03T13:54:08.129Z,26.03
2023-05-03T13:56:36.956Z,26.06
2023-05-03T13:59:08.637Z,26.04
2023-05-03T14:01:37.524Z,25.90
2023-05-03T14:04:06.115Z,25.83
2023-05-03T14:06:37.056Z,25.86
2023-05-03T14:09:08.160Z,25.83
2023-05-03T14:11:36.466Z,25.66
2023-05-03T14:14:04.916Z,25.64
2023-05-03T14:16:40.982Z,25.62
2023-05-03T14:19:11.636Z,25.62
2023-05-03T14:21:43.117Z,25.56
2023-05-03T14:24:11.692Z,25.35
2023-05-03T14:26:40.158Z,25.35
2023-05-03T14:29:08.638Z,25.48
2023-05-03T14:31:37.105Z,25.36
2023-05-03T14:34:05.619Z,25.29
2023-05-03T14:36:36.446Z,25.21
2023-05-03T14:39:07.256Z,25.11
2023-05-03T14:41:36.359Z,25.02
2023-05-03T14:44:04.856Z,24.87
2023-05-03T14:46:34.309Z,24.85
2023-05-03T14:49:02.821Z,24.79
2023-05-03T14:51:32.542Z,24.66
2023-05-03T14:54:01.847Z,24.50
2023-05-03T14:56:33.053Z,24.38
2023-05-03T14:59:02.260Z,24.33
2023-05-03T15:01:30.709Z,24.33
2023-05-03T15:03:59.324Z,24.27
2023-05-03T15:06:28.862Z,24.28
2023-05-03T15:08:59.586Z,24.26
2023-05-03T15:11:28.795Z,24.03
2023-05-03T15:13:58.738Z,24.13
2023-05-03T15:16:27.830Z,24.22
2023-05-03T15:18:56.314Z,24.20
2023-05-03T15:21:24.939Z,24.06
2023-05-03T15:23:54.051Z,23.94
2023-05-03T15:26:24.572Z,23.82
2023-05-03T15:28:53.343Z,23.84
2023-05-03T15:31:23.605Z,23.75
2023-05-03T15:33:52.096Z,23.63
2023-05-03T15:36:20.686Z,23.64
2023-05-03T15:38:50.455Z,23.56
2023-05-03T15:41:18.906Z,23.50
2023-05-03T15:43:47.466Z,23.53
2023-05-03T15:46:16.160Z,23.58
2023-05-03T15:48:46.144Z,23.50
2023-05-03T15:51:14.654Z,23.40
2023-05-03T15:53:43.763Z,23.34
2023-05-03T15:56:12.655Z,23.17
2023-05-03T15:58:41.190Z,23.09
2023-05-03T16:01:09.717Z,23.03
2023-05-03T16:03:38.292Z,22.94
2023-05-03T16:06:08.615Z,22.89
2023-05-03T16:08:37.052Z,22.97
2023-05-03T16:11:05.430Z,22.93
2023-05-03T16:13:33.838Z,22.94
2023-05-03T16:16:03.284Z,22.82
2023-05-03T16:18:32.065Z,22.73
2023-05-03T16:21:01.592Z,22.66
2023-05-03T16:23:31.406Z,22.65
2023-05-03T16:25:59.839Z,22.70
2023-05-03T16:28:28.198Z,22.66
2023-05-03T16:30:56.791Z,22.56
2023-05-03T16:33:25.151Z,22.46
2023-05-03T16:35:53.545Z,22.30
2023-05-03T16:38:21.894Z,22.32
2023-05-03T16:40:51.686Z,22.23
2023-05-03T16:43:20.169Z,22.12
2023-05-03T16:45:57.522Z,22.11
2023-05-03T16:48:26.420Z,22.02
2023-05-03T16:50:54.841Z,21.97
2023-05-03T16:53:23.363Z,22.00
2023-05-03T16:55:53.504Z,22.02
2023-05-03T16:58:21.986Z,22.00
2023-05-03T17:00:50.396Z,21.99
2023-05-03T17:03:19.035Z,21.92
2023-05-03T17:05:47.570Z,21.92
2023-05-03T17:08:15.953Z,21.83
2023-05-03T17:10:45.402Z,21.75
2023-05-03T17:13:16.519Z,21.65
2023-05-03T17:15:45.330Z,21.60
2023-05-03T17:18:13.905Z,21.49
2023-05-03T17:20:43.121Z,21.45
2023-05-03T17:23:11.422Z,21.37
2023-05-03T17:25:39.904Z,21.30
2023-05-03T17:28:08.678Z,21.22
2023-05-03T17:30:39.378Z,21.10
2023-05-03T17:33:08.020Z,21.03
2023-05-03T17:35:37.446Z,20.95
2023-05-03T17:38:06.171Z,20.90
2023-05-03T17:40:35.253Z,20.84
2023-05-03T17:43:03.801Z,20.76
2023-05-03T17:45:33.073Z,20.69
2023-05-03T17:48:04.024Z,20.56
2023-05-03T17:50:32.437Z,20.49
2023-05-03T17:53:01.114Z,20.45
2023-05-03T17:55:29.711Z,20.42
2023-05-03T17:57:58.032Z,20.34
2023-05-03T18:00:28.105Z,20.28
2023-05-03T18:02:58.767Z,20.22
2023-05-03T18:05:28.875Z,20.15
2023-05-03T18:07:57.312Z,20.10
2023-05-03T18:10:25.713Z,20.03
2023-05-03T18:12:55.138Z,19.95
2023-05-03T18:15:23.843Z,19.89
2023-05-03T18:17:53.056Z,19.75
2023-05-03T18:20:21.738Z,19.77
2023-05-03T18:22:51.516Z,19.67
2023-05-03T18:25:19.958Z,19.62
2023-05-03T18:27:48.339Z,19.57
2023-05-03T18:30:17.326Z,19.51
2023-05-03T18:32:45.824Z,19.45
2023-05-03T18:35:14.280Z,19.34
2023-05-03T18:37:42.656Z,19.17
2023-05-03T18:40:13.422Z,19.00
2023-05-03T18:42:41.861Z,18.88
2023-05-03T18:45:10.628Z,18.82
2023-05-03T18:47:39.064Z,18.76
2023-05-03T18:50:08.640Z,18.67
2023-05-03T18:52:37.374Z,18.56
2023-05-03T18:55:06.535Z,18.54
2023-05-03T18:57:37.170Z,18.53
2023-05-03T19:00:06.725Z,18.40
2023-05-03T19:02:35.230Z,18.20
2023-05-03T19:05:03.625Z,18.06
2023-05-03T19:07:32.310Z,17.89
2023-05-03T19:10:01.386Z,17.77
2023-05-03T19:12:30.052Z,17.59
2023-05-03T19:14:59.850Z,17.40
2023-05-03T19:17:28.332Z,17.23
2023-05-03T19:19:56.758Z,17.12
2023-05-03T19:22:25.150Z,17.00
2023-05-03T19:24:53.519Z,16.85
2023-05-03T19:27:21.940Z,16.74
2023-05-03T19:29:50.441Z,16.57
2023-05-03T19:32:20.272Z,16.40
2023-05-03T19:34:48.654Z,16.27
2023-05-03T19:37:17.229Z,16.12
2023-05-03T19:39:45.826Z,16.07
2023-05-03T19:42:14.269Z,16.05
2023-05-03T19:44:42.671Z,15.97
2023-05-03T19:47:11.090Z,15.89
2023-05-03T19:49:41.884Z,15.78
2023-05-03T19:52:11.349Z,15.65
2023-05-03T19:54:39.701Z,15.57
2023-05-03T19:57:08.436Z,15.50
2023-05-03T19:59:36.884Z,15.42
2023-05-03T20:02:05.408Z,15.32
2023-05-03T20:04:34.004Z,15.20
2023-05-03T20:07:04.047Z,14.96
2023-05-03T20:09:32.494Z,14.99
2023-05-03T20:12:02.269Z,14.90
2023-05-03T20:14:32.535Z,14.83
2023-05-03T20:17:01.599Z,14.68
2023-05-03T20:19:30.009Z,14.62
2023-05-03T20:21:58.500Z,14.50
2023-05-03T20:24:28.319Z,14.42
2023-05-03T20:26:56.761Z,14.33
2023-05-03T20:29:25.200Z,14.27
2023-05-03T20:31:54.038Z,14.24
2023-05-03T20:34:22.462Z,14.17
2023-05-03T20:36:50.866Z,14.07
2023-05-03T20:39:19.219Z,13.98
2023-05-03T20:41:48.977Z,13.87
2023-05-03T20:44:17.376Z,13.80
2023-05-03T20:46:45.805Z,13.77
2023-05-03T20:49:14.551Z,13.75
2023-05-03T20:51:42.980Z,13.71
2023-05-03T20:54:12.354Z,13.66
2023-05-03T20:56:40.707Z,13.57
2023-05-03T20:59:10.497Z,13.53
2023-05-03T21:01:41.202Z,13.46
2023-05-03T21:04:09.688Z,13.36
2023-05-03T21:06:38.412Z,13.27
2023-05-03T21:09:07.031Z,13.24
2023-05-03T21:11:35.513Z,13.21
2023-05-03T21:14:04.176Z,13.21
2023-05-03T21:16:34.044Z,13.16
2023-05-03T21:19:03.950Z,13.07
2023-05-03T21:21:33.550Z,13.07
2023-05-03T21:24:02.501Z,13.02
2023-05-03T21:26:32.604Z,12.97
2023-05-03T21:29:01.669Z,12.87
2023-05-03T21:31:30.368Z,12.83
2023-05-03T21:34:00.295Z,12.81
2023-05-03T21:36:28.927Z,12.74
2023-05-03T21:38:58.058Z,12.69
2023-05-03T21:41:26.395Z,12.63
2023-05-03T21:43:54.775Z,12.57
2023-05-03T21:46:23.215Z,12.48
2023-05-03T21:48:51.665Z,12.42
2023-05-03T21:51:22.128Z,12.40
2023-05-03T21:53:51.546Z,12.33
2023-05-03T21:56:19.974Z,12.27
2023-05-03T21:58:49.948Z,12.22
2023-05-03T22:01:20.252Z,12.18
2023-05-03T22:03:49.712Z,12.14
2023-05-03T22:06:18.236Z,12.08
2023-05-03T22:08:48.028Z,12.00
2023-05-03T22:11:16.365Z,11.98
2023-05-03T22:14:03.090Z,11.99
2023-05-03T22:16:33.566Z,11.99
2023-05-03T22:19:03.180Z,12.01
2023-05-03T22:21:31.820Z,11.97
2023-05-03T22:24:01.713Z,11.88
2023-05-03T22:26:30.170Z,11.78
2023-05-03T22:28:58.528Z,11.74
2023-05-03T22:31:27.670Z,11.70
2023-05-03T22:33:56.108Z,11.69
2023-05-03T22:36:24.574Z,11.63
2023-05-03T22:38:55.433Z,11.58
2023-05-03T22:41:25.368Z,11.53
2023-05-03T22:43:53.800Z,11.33
2023-05-03T22:46:22.273Z,11.42
2023-05-03T22:48:50.808Z,11.40
2023-05-03T22:51:19.382Z,11.37
2023-05-03T22:53:47.933Z,11.37
2023-05-03T22:56:16.453Z,11.34
2023-05-03T22:58:47.742Z,11.35
2023-05-03T23:01:16.234Z,11.34
2023-05-03T23:03:44.845Z,11.33
2023-05-03T23:06:13.952Z,11.29
2023-05-03T23:08:42.269Z,11.23
2023-05-03T23:11:10.872Z,11.17
2023-05-03T23:13:39.494Z,11.13
2023-05-03T23:16:10.503Z,11.10
2023-05-03T23:18:39.537Z,11.07
2023-05-03T23:21:07.967Z,11.02
2023-05-03T23:23:36.409Z,11.01
2023-05-03T23:26:04.955Z,10.99
2023-05-03T23:28:33.977Z,10.95
2023-05-03T23:31:02.769Z,10.85
2023-05-03T23:33:33.250Z,10.86
2023-05-03T23:36:01.662Z,10.82
2023-05-03T23:38:30.033Z,10.81
2023-05-03T23:40:58.416Z,10.76
2023-05-03T23:43:27.178Z,10.69
2023-05-03T23:45:55.732Z,10.65
2023-05-03T23:48:24.227Z,10.58
2023-05-03T23:50:54.977Z,10.55
2023-05-03T23:53:23.378Z,10.51
2023-05-03T23:55:51.709Z,10.48
2023-05-03T23:58:20.191Z,10.45
